Napas, Russia
Current Conditions -  °F | °C
As of 6:30 AM on Saturday 25 Oct 2014 (Local Time) from USNN Reporting Station
Light Snow Light Snow  
Wind Chill: -3°   Ceiling: 3000
Heat Index: 12°   Visibility: 4mi
Dew Point:   Wind: 13mph
Humidity: 79%   Direction: 60°ENE
Pressure: 29.8"   Gusts: NA
Location:  59.85°N, 81.97°E
Report Text: USNN 242330Z 06006MPS 6000 -SN DRSN OVC030 M11/M14 Q1009 TEMPO1000 SN RMK QFE753 03410265
Loading
Personal Weather Stations






























Interactive Weather Map
Tropical Storm Tracking
New forecast layout! Learn more

10-Day Weather Forecast

Advertisements
Track Severe Weather on mobile